Freeport, Michigan
Current Conditions -  °F | °C
As of 7:53 PM on Sunday 23 Nov 2014 (Local Time) from KGRR Reporting Station
Moderate Rain Moderate Rain  
Wind Chill: 10°   Ceiling: 600
Heat Index: 10°   Visibility: 2.5mi
Dew Point:   Wind: 12mph
Humidity: 93%   Direction: 110°ESE
Pressure: 29.44"   Gusts: NA
Location:  42.77°N, 85.31°W
Report Text: KGRR 240053Z 11010KT 2 1/2SM RA BR BKN006 OVC015 10/09 A2944 RMK AO2 SLP970 P0014 T01000089
Loading
Personal Weather Stations






























Interactive Weather Map New forecast layout! Learn more

10-Day Weather Forecast

Advertisements
Track Severe Weather on mobile